Terminal Aerodrome Forecast
Issued by NWS Portland, OR

Home | Current Version | Previous Version | Text Only | Print | Product List | Glossary On
Versions: 1 2 3 4 5 6 7 8 9 10 11 12 13 14
000
FTUS46 KPQR 240520
TAFTTD
TAF
KTTD 240520Z 2406/2506 09007KT 6SM RA SCT025 OVC035
     FM241200 09007KT P6SM -SHRA SCT025 OVC030
     FM241900 19010KT P6SM -SHRA VCTS SCT025 BKN040CB
     FM250300 14003KT P6SM -SHRA SCT025 BKN040=

USA.gov is the U.S. government's official web portal to all federal, state and local government web resources and services.